sensor_id;sensor_type;location;lat;lon;timestamp;P1;durP1;ratioP1;P2;durP2;ratioP2
84778;SDS011;75010;50.866;20.620;2024-03-07T00:00:18;31;;;26;;
84778;SDS011;75010;50.866;20.620;2024-03-07T00:10:18;27;;;23;;
84778;SDS011;75010;50.866;20.620;2024-03-07T00:20:03;27;;;25;;
84778;SDS011;75010;50.866;20.620;2024-03-07T00:30:20;30;;;26;;
84778;SDS011;75010;50.866;20.620;2024-03-07T00:40:06;30;;;26;;
84778;SDS011;75010;50.866;20.620;2024-03-07T00:50:12;31;;;28;;
84778;SDS011;75010;50.866;20.620;2024-03-07T01:00:04;31;;;28;;
84778;SDS011;75010;50.866;20.620;2024-03-07T01:10:12;26;;;28;;
84778;SDS011;75010;50.866;20.620;2024-03-07T01:20:12;34;;;23;;
84778;SDS011;75010;50.866;20.620;2024-03-07T01:30:05;34;;;23;;
84778;SDS011;75010;50.866;20.620;2024-03-07T01:40:02;30;;;30;;
84778;SDS011;75010;50.866;20.620;2024-03-07T01:50:09;46;;;25;;
84778;SDS011;75010;50.866;20.620;2024-03-07T02:00:08;34;;;38;;
84778;SDS011;75010;50.866;20.620;2024-03-07T02:10:14;34;;;38;;
84778;SDS011;75010;50.866;20.620;2024-03-07T02:20:05;34;;;27;;
84778;SDS011;75010;50.866;20.620;2024-03-07T02:30:18;28;;;27;;
84778;SDS011;75010;50.866;20.620;2024-03-07T02:40:05;32;;;41;;
84778;SDS011;75010;50.866;20.620;2024-03-07T03:00:30;32;;;26;;
84778;SDS011;75010;50.866;20.620;2024-03-07T03:10:04;41;;;24;;
84778;SDS011;75010;50.866;20.620;2024-03-07T03:20:10;42;;;31;;
84778;SDS011;75010;50.866;20.620;2024-03-07T03:30:14;42;;;31;;
84778;SDS011;75010;50.866;20.620;2024-03-07T03:40:18;34;;;27;;
84778;SDS011;75010;50.866;20.620;2024-03-07T04:00:16;38;;;26;;
84778;SDS011;75010;50.866;20.620;2024-03-07T04:10:04;38;;;26;;
84778;SDS011;75010;50.866;20.620;2024-03-07T04:20:18;49;;;40;;
84778;SDS011;75010;50.866;20.620;2024-03-07T04:30:08;37;;;40;;
84778;SDS011;75010;50.866;20.620;2024-03-07T04:40:06;37;;;40;;
84778;SDS011;75010;50.866;20.620;2024-03-07T04:50:08;33;;;26;;
84778;SDS011;75010;50.866;20.620;2024-03-07T05:00:20;34;;;25;;
84778;SDS011;75010;50.866;20.620;2024-03-07T05:10:03;34;;;25;;
84778;SDS011;75010;50.866;20.620;2024-03-07T05:20:10;31;;;27;;
84778;SDS011;75010;50.866;20.620;2024-03-07T05:30:07;28;;;27;;
84778;SDS011;75010;50.866;20.620;2024-03-07T05:40:11;35;;;27;;
84778;SDS011;75010;50.866;20.620;2024-03-07T06:00:35;33;;;29;;
84778;SDS011;75010;50.866;20.620;2024-03-07T06:10:19;29;;;29;;
84778;SDS011;75010;50.866;20.620;2024-03-07T06:20:27;27;;;25;;
84778;SDS011;75010;50.866;20.620;2024-03-07T06:30:04;34;;;25;;
84778;SDS011;75010;50.866;20.620;2024-03-07T06:40:23;34;;;25;;
84778;SDS011;75010;50.866;20.620;2024-03-07T06:50:04;37;;;27;;
84778;SDS011;75010;50.866;20.620;2024-03-07T07:00:27;30;;;28;;
84778;SDS011;75010;50.866;20.620;2024-03-07T07:10:16;30;;;28;;
84778;SDS011;75010;50.866;20.620;2024-03-07T07:20:11;29;;;25;;
84778;SDS011;75010;50.866;20.620;2024-03-07T07:30:02;33;;;28;;
84778;SDS011;75010;50.866;20.620;2024-03-07T07:50:22;28;;;25;;
84778;SDS011;75010;50.866;20.620;2024-03-07T08:10:02;35;;;30;;
84778;SDS011;75010;50.866;20.620;2024-03-07T08:20:03;35;;;25;;
84778;SDS011;75010;50.866;20.620;2024-03-07T08:30:19;35;;;25;;
84778;SDS011;75010;50.866;20.620;2024-03-07T08:40:12;33;;;29;;
84778;SDS011;75010;50.866;20.620;2024-03-07T08:50:11;33;;;29;;
84778;SDS011;75010;50.866;20.620;2024-03-07T09:00:23;32;;;26;;
84778;SDS011;75010;50.866;20.620;2024-03-07T09:10:03;26;;;25;;
84778;SDS011;75010;50.866;20.620;2024-03-07T09:20:22;26;;;25;;
84778;SDS011;75010;50.866;20.620;2024-03-07T09:30:26;26;;;25;;
84778;SDS011;75010;50.866;20.620;2024-03-07T09:40:14;27;;;26;;
84778;SDS011;75010;50.866;20.620;2024-03-07T09:50:22;27;;;26;;
84778;SDS011;75010;50.866;20.620;2024-03-07T10:00:30;23;;;27;;
84778;SDS011;75010;50.866;20.620;2024-03-07T10:10:03;23;;;27;;
84778;SDS011;75010;50.866;20.620;2024-03-07T10:20:02;36;;;21;;
84778;SDS011;75010;50.866;20.620;2024-03-07T10:30:21;48;;;35;;
84778;SDS011;75010;50.866;20.620;2024-03-07T10:50:43;41;;;40;;
84778;SDS011;75010;50.866;20.620;2024-03-07T11:00:04;25;;;26;;
84778;SDS011;75010;50.866;20.620;2024-03-07T11:20:21;40;;;33;;
84778;SDS011;75010;50.866;20.620;2024-03-07T11:30:09;28;;;29;;
84778;SDS011;75010;50.866;20.620;2024-03-07T11:40:10;28;;;29;;
84778;SDS011;75010;50.866;20.620;2024-03-07T11:50:09;24;;;22;;
84778;SDS011;75010;50.866;20.620;2024-03-07T12:00:09;24;;;22;;
84778;SDS011;75010;50.866;20.620;2024-03-07T12:10:02;24;;;25;;
84778;SDS011;75010;50.866;20.620;2024-03-07T12:20:02;25;;;22;;
84778;SDS011;75010;50.866;20.620;2024-03-07T12:30:38;25;;;22;;
84778;SDS011;75010;50.866;20.620;2024-03-07T12:40:19;20;;;15;;
84778;SDS011;75010;50.866;20.620;2024-03-07T12:50:16;20;;;15;;
84778;SDS011;75010;50.866;20.620;2024-03-07T13:00:02;22;;;18;;
84778;SDS011;75010;50.866;20.620;2024-03-07T13:10:02;22;;;18;;
84778;SDS011;75010;50.866;20.620;2024-03-07T13:20:22;21;;;18;;
84778;SDS011;75010;50.866;20.620;2024-03-07T13:30:28;22;;;19;;
84778;SDS011;75010;50.866;20.620;2024-03-07T13:40:29;22;;;19;;
84778;SDS011;75010;50.866;20.620;2024-03-07T13:50:25;22;;;23;;
84778;SDS011;75010;50.866;20.620;2024-03-07T14:30:59;22;;;19;;
84778;SDS011;75010;50.866;20.620;2024-03-07T14:40:12;26;;;22;;
84778;SDS011;75010;50.866;20.620;2024-03-07T14:50:21;26;;;24;;
84778;SDS011;75010;50.866;20.620;2024-03-07T15:00:41;26;;;24;;
84778;SDS011;75010;50.866;20.620;2024-03-07T15:10:37;28;;;29;;
84778;SDS011;75010;50.866;20.620;2024-03-07T15:20:02;28;;;29;;
84778;SDS011;75010;50.866;20.620;2024-03-07T15:30:15;27;;;25;;
84778;SDS011;75010;50.866;20.620;2024-03-07T15:40:15;27;;;25;;
84778;SDS011;75010;50.866;20.620;2024-03-07T15:50:16;24;;;19;;
84778;SDS011;75010;50.866;20.620;2024-03-07T16:00:07;24;;;19;;
84778;SDS011;75010;50.866;20.620;2024-03-07T16:10:09;40;;;23;;
84778;SDS011;75010;50.866;20.620;2024-03-07T16:20:14;21;;;21;;
84778;SDS011;75010;50.866;20.620;2024-03-07T16:30:15;24;;;19;;
84778;SDS011;75010;50.866;20.620;2024-03-07T16:40:09;24;;;19;;
84778;SDS011;75010;50.866;20.620;2024-03-07T16:50:13;28;;;23;;
84778;SDS011;75010;50.866;20.620;2024-03-07T17:00:28;28;;;23;;
84778;SDS011;75010;50.866;20.620;2024-03-07T17:10:14;28;;;23;;
84778;SDS011;75010;50.866;20.620;2024-03-07T17:20:08;33;;;29;;
84778;SDS011;75010;50.866;20.620;2024-03-07T17:30:09;33;;;29;;
84778;SDS011;75010;50.866;20.620;2024-03-07T17:40:07;25;;;27;;
84778;SDS011;75010;50.866;20.620;2024-03-07T17:50:11;24;;;21;;
84778;SDS011;75010;50.866;20.620;2024-03-07T18:00:10;24;;;21;;
84778;SDS011;75010;50.866;20.620;2024-03-07T18:10:19;28;;;25;;
84778;SDS011;75010;50.866;20.620;2024-03-07T18:20:19;28;;;25;;
84778;SDS011;75010;50.866;20.620;2024-03-07T18:30:22;31;;;25;;
84778;SDS011;75010;50.866;20.620;2024-03-07T18:40:10;31;;;25;;
84778;SDS011;75010;50.866;20.620;2024-03-07T18:50:25;43;;;35;;
84778;SDS011;75010;50.866;20.620;2024-03-07T19:00:06;43;;;35;;
84778;SDS011;75010;50.866;20.620;2024-03-07T19:10:03;38;;;37;;
84778;SDS011;75010;50.866;20.620;2024-03-07T19:20:13;34;;;32;;
84778;SDS011;75010;50.866;20.620;2024-03-07T19:30:13;34;;;32;;
84778;SDS011;75010;50.866;20.620;2024-03-07T19:40:20;45;;;34;;
84778;SDS011;75010;50.866;20.620;2024-03-07T19:50:02;45;;;34;;
84778;SDS011;75010;50.866;20.620;2024-03-07T20:00:10;37;;;36;;
84778;SDS011;75010;50.866;20.620;2024-03-07T20:10:02;37;;;36;;
84778;SDS011;75010;50.866;20.620;2024-03-07T20:20:02;45;;;36;;
84778;SDS011;75010;50.866;20.620;2024-03-07T20:30:08;45;;;36;;
84778;SDS011;75010;50.866;20.620;2024-03-07T20:40:24;57;;;38;;
84778;SDS011;75010;50.866;20.620;2024-03-07T20:50:21;57;;;42;;
84778;SDS011;75010;50.866;20.620;2024-03-07T21:00:15;57;;;42;;
84778;SDS011;75010;50.866;20.620;2024-03-07T21:10:08;70;;;47;;
84778;SDS011;75010;50.866;20.620;2024-03-07T21:20:03;70;;;47;;
84778;SDS011;75010;50.866;20.620;2024-03-07T21:30:07;80;;;55;;
84778;SDS011;75010;50.866;20.620;2024-03-07T21:40:15;80;;;55;;
84778;SDS011;75010;50.866;20.620;2024-03-07T21:50:20;86;;;69;;
84778;SDS011;75010;50.866;20.620;2024-03-07T22:00:21;86;;;69;;
84778;SDS011;75010;50.866;20.620;2024-03-07T22:10:20;98;;;74;;
84778;SDS011;75010;50.866;20.620;2024-03-07T22:20:06;94;;;87;;
84778;SDS011;75010;50.866;20.620;2024-03-07T22:30:21;94;;;87;;
84778;SDS011;75010;50.866;20.620;2024-03-07T22:40:05;85;;;75;;
84778;SDS011;75010;50.866;20.620;2024-03-07T22:50:18;85;;;75;;
84778;SDS011;75010;50.866;20.620;2024-03-07T23:00:24;81;;;69;;
84778;SDS011;75010;50.866;20.620;2024-03-07T23:10:11;81;;;69;;
84778;SDS011;75010;50.866;20.620;2024-03-07T23:20:15;81;;;66;;
84778;SDS011;75010;50.866;20.620;2024-03-07T23:30:07;81;;;66;;
84778;SDS011;75010;50.866;20.620;2024-03-07T23:40:16;80;;;62;;
84778;SDS011;75010;50.866;20.620;2024-03-07T23:50:17;76;;;60;;
